createdAt,value
2023-05-05T00:00:09.923Z,16.73
2023-05-05T00:02:38.641Z,16.57
2023-05-05T00:05:08.231Z,16.80
2023-05-05T00:07:37.030Z,18.57
2023-05-05T00:10:06.656Z,17.43
2023-05-05T00:12:36.364Z,17.67
2023-05-05T00:15:07.535Z,18.30
2023-05-05T00:17:36.365Z,17.10
2023-05-05T00:20:05.935Z,15.07
2023-05-05T00:22:34.811Z,17.33
2023-05-05T00:25:04.921Z,17.17
2023-05-05T00:27:33.588Z,17.47
2023-05-05T00:30:02.512Z,17.27
2023-05-05T00:32:32.808Z,18.07
2023-05-05T00:35:01.583Z,16.73
2023-05-05T00:37:30.260Z,17.60
2023-05-05T00:39:58.910Z,16.63
2023-05-05T00:42:27.904Z,18.57
2023-05-05T00:44:56.534Z,16.70
2023-05-05T00:47:25.421Z,17.27
2023-05-05T00:49:55.922Z,16.60
2023-05-05T00:52:24.780Z,16.73
2023-05-05T00:54:54.109Z,16.10
2023-05-05T00:57:22.878Z,17.43
2023-05-05T00:59:52.412Z,16.07
2023-05-05T01:02:22.704Z,16.50
2023-05-05T01:04:56.476Z,15.60
2023-05-05T01:07:37.403Z,16.83
2023-05-05T01:10:19.737Z,16.03
2023-05-05T01:12:59.039Z,15.47
2023-05-05T01:15:35.558Z,17.83
2023-05-05T01:18:12.705Z,15.17
2023-05-05T01:20:50.524Z,17.10
2023-05-05T01:23:30.162Z,16.07
2023-05-05T01:26:23.346Z,16.20
2023-05-05T01:29:08.652Z,15.83
2023-05-05T01:31:51.745Z,18.30
2023-05-05T01:34:29.962Z,15.40
2023-05-05T01:37:07.651Z,16.07
2023-05-05T01:39:37.285Z,17.73
2023-05-05T01:42:10.100Z,16.23
2023-05-05T01:44:39.571Z,17.23
2023-05-05T01:47:11.545Z,16.80
2023-05-05T01:49:40.747Z,19.37
2023-05-05T01:52:11.406Z,16.57
2023-05-05T01:54:41.374Z,16.53
2023-05-05T01:57:14.158Z,17.37
2023-05-05T01:59:42.911Z,16.00
2023-05-05T02:02:15.751Z,16.17
2023-05-05T02:04:46.609Z,16.43
2023-05-05T02:07:16.545Z,15.03
2023-05-05T02:09:45.938Z,17.23
2023-05-05T02:12:25.141Z,15.63
2023-05-05T02:14:54.443Z,16.97
2023-05-05T02:17:25.416Z,15.50
2023-05-05T02:19:56.714Z,17.60
2023-05-05T02:22:25.664Z,18.03
2023-05-05T02:24:54.907Z,16.57
2023-05-05T02:27:27.224Z,17.43
2023-05-05T02:30:02.533Z,17.07
2023-05-05T02:32:35.397Z,19.97
2023-05-05T02:35:12.054Z,19.00
2023-05-05T02:37:45.040Z,20.97
2023-05-05T02:40:16.504Z,18.30
2023-05-05T02:42:48.530Z,18.73
2023-05-05T02:45:19.558Z,17.93
2023-05-05T02:47:50.264Z,18.20
2023-05-05T02:50:19.269Z,16.77
2023-05-05T02:52:48.209Z,17.20
2023-05-05T02:55:17.200Z,17.70
2023-05-05T02:57:52.641Z,19.10
2023-05-05T03:00:30.717Z,17.73
2023-05-05T03:03:13.958Z,17.50
2023-05-05T03:05:47.454Z,17.17
2023-05-05T03:08:19.682Z,18.37
2023-05-05T03:10:51.783Z,16.57
2023-05-05T03:13:24.272Z,15.03
2023-05-05T03:15:54.509Z,17.07
2023-05-05T03:18:26.650Z,18.03
2023-05-05T03:20:55.821Z,17.07
2023-05-05T03:23:25.028Z,17.07
2023-05-05T03:25:53.711Z,17.40
2023-05-05T03:28:22.498Z,17.30
2023-05-05T03:30:53.014Z,18.70
2023-05-05T03:33:21.823Z,16.97
2023-05-05T03:35:51.807Z,19.07
2023-05-05T03:38:20.584Z,16.90
2023-05-05T03:40:49.297Z,16.57
2023-05-05T03:43:22.872Z,17.87
2023-05-05T03:45:52.557Z,15.83
2023-05-05T03:48:24.076Z,17.83
2023-05-05T03:50:55.381Z,16.97
2023-05-05T03:53:29.132Z,18.53
2023-05-05T03:55:57.855Z,21.53
2023-05-05T03:58:26.670Z,21.10
2023-05-05T04:00:59.856Z,19.03
2023-05-05T04:03:28.746Z,20.90
2023-05-05T04:06:01.844Z,20.73
2023-05-05T04:08:33.544Z,21.53
2023-05-05T04:11:06.774Z,20.43
2023-05-05T04:13:35.450Z,20.80
2023-05-05T04:16:04.401Z,19.13
2023-05-05T04:18:36.300Z,20.27
2023-05-05T04:21:15.053Z,19.67
2023-05-05T04:23:44.604Z,20.70
2023-05-05T04:26:13.679Z,18.37
2023-05-05T04:28:43.968Z,18.97
2023-05-05T04:31:12.773Z,18.50
2023-05-05T04:33:41.795Z,22.60
2023-05-05T04:36:12.228Z,19.90
2023-05-05T04:38:41.074Z,20.80
2023-05-05T04:41:14.704Z,18.73
2023-05-05T04:43:46.198Z,20.67
2023-05-05T04:46:17.810Z,17.73
2023-05-05T04:48:46.575Z,21.57
2023-05-05T04:51:16.899Z,19.03
2023-05-05T04:53:53.435Z,19.77
2023-05-05T04:56:24.097Z,16.07
2023-05-05T04:58:52.899Z,18.13
2023-05-05T05:01:23.150Z,16.30
2023-05-05T05:03:55.174Z,18.17
2023-05-05T05:06:32.275Z,19.60
2023-05-05T05:09:04.815Z,18.27
2023-05-05T05:11:35.520Z,18.67
2023-05-05T05:14:06.951Z,16.70
2023-05-05T05:16:35.639Z,18.43
2023-05-05T05:19:04.359Z,18.20
2023-05-05T05:21:34.386Z,18.20
2023-05-05T05:24:03.147Z,16.73
2023-05-05T05:26:31.932Z,18.13
2023-05-05T05:29:00.673Z,18.10
2023-05-05T05:31:29.342Z,17.30
2023-05-05T05:33:58.057Z,18.70
2023-05-05T05:36:26.713Z,15.23
2023-05-05T05:38:57.008Z,17.83
2023-05-05T05:41:25.680Z,16.60
2023-05-05T05:43:54.429Z,15.13
2023-05-05T05:46:23.250Z,16.90
2023-05-05T05:48:51.943Z,17.20
2023-05-05T05:51:20.574Z,16.90
2023-05-05T05:53:49.315Z,15.73
2023-05-05T05:56:19.594Z,16.67
2023-05-05T05:58:48.876Z,16.97
2023-05-05T06:01:17.501Z,17.03
2023-05-05T06:03:46.233Z,16.33
2023-05-05T06:06:14.939Z,16.83
2023-05-05T06:08:43.589Z,19.17
2023-05-05T06:11:12.195Z,16.40
2023-05-05T06:13:42.147Z,19.70
2023-05-05T06:16:10.817Z,16.87
2023-05-05T06:18:42.707Z,20.00
2023-05-05T06:21:13.346Z,17.77
2023-05-05T06:23:42.186Z,18.97
2023-05-05T06:26:10.790Z,18.63
2023-05-05T06:28:39.513Z,18.47
2023-05-05T06:31:09.556Z,17.23
2023-05-05T06:33:38.384Z,19.20
2023-05-05T06:36:07.327Z,17.40
2023-05-05T06:38:36.007Z,17.97
2023-05-05T06:41:04.869Z,17.67
2023-05-05T06:43:33.586Z,17.87
2023-05-05T06:46:02.227Z,17.90
2023-05-05T06:48:32.507Z,15.50
2023-05-05T06:51:01.192Z,16.40
2023-05-05T06:53:29.843Z,17.43
2023-05-05T06:55:58.634Z,17.47
2023-05-05T06:58:27.386Z,18.07
2023-05-05T07:00:56.056Z,15.67
2023-05-05T07:03:25.334Z,15.63
2023-05-05T07:05:55.514Z,16.03
2023-05-05T07:08:24.104Z,15.87
2023-05-05T07:10:55.322Z,14.33
2023-05-05T07:13:24.072Z,16.13
2023-05-05T07:15:55.733Z,15.03
2023-05-05T07:18:24.341Z,16.30
2023-05-05T07:20:53.106Z,15.53
2023-05-05T07:23:26.262Z,15.07
2023-05-05T07:25:56.254Z,15.27
2023-05-05T07:28:24.905Z,14.53
2023-05-05T07:30:53.749Z,14.37
2023-05-05T07:33:22.707Z,15.57
2023-05-05T07:35:51.775Z,16.47
2023-05-05T07:38:22.973Z,14.87
2023-05-05T07:40:55.354Z,15.33
2023-05-05T07:43:24.011Z,15.27
2023-05-05T07:45:52.872Z,15.00
2023-05-05T07:48:23.757Z,14.97
2023-05-05T07:50:53.116Z,15.87
2023-05-05T07:53:21.929Z,15.17
2023-05-05T07:55:52.100Z,16.50
2023-05-05T07:58:20.797Z,16.57
2023-05-05T08:00:52.661Z,18.60
2023-05-05T08:03:24.496Z,15.53
2023-05-05T08:05:55.824Z,15.57
2023-05-05T08:08:25.156Z,15.43
2023-05-05T08:10:55.329Z,15.87
2023-05-05T08:13:24.082Z,16.70
2023-05-05T08:15:54.166Z,16.30
2023-05-05T08:18:26.987Z,16.23
2023-05-05T08:20:55.714Z,16.10
2023-05-05T08:23:24.413Z,16.40
2023-05-05T08:25:54.417Z,16.40
2023-05-05T08:28:23.786Z,15.50
2023-05-05T08:30:52.532Z,17.57
2023-05-05T08:33:21.532Z,15.90
2023-05-05T08:35:52.266Z,15.77
2023-05-05T08:38:20.896Z,16.70
2023-05-05T08:40:49.717Z,16.90
2023-05-05T08:43:22.919Z,17.33
2023-05-05T08:45:52.639Z,17.63
2023-05-05T08:48:23.176Z,17.43
2023-05-05T08:51:00.712Z,18.80
2023-05-05T08:53:42.783Z,16.90
2023-05-05T08:56:14.427Z,18.03
2023-05-05T08:58:46.541Z,19.43
2023-05-05T09:01:15.996Z,18.43
2023-05-05T09:03:44.993Z,19.93
2023-05-05T09:06:13.761Z,17.93
2023-05-05T09:08:42.810Z,20.63
2023-05-05T09:11:11.543Z,17.97
2023-05-05T09:13:40.197Z,18.73
2023-05-05T09:16:10.313Z,18.00
2023-05-05T09:18:41.005Z,19.37
2023-05-05T09:21:23.185Z,19.50
2023-05-05T09:24:08.563Z,20.97
2023-05-05T09:26:39.134Z,19.97
2023-05-05T09:29:07.768Z,20.03
2023-05-05T09:31:38.245Z,19.13
2023-05-05T09:34:16.823Z,19.47
2023-05-05T09:36:47.919Z,20.80
2023-05-05T09:39:21.609Z,18.30
2023-05-05T09:41:50.486Z,20.27
2023-05-05T09:44:35.007Z,20.00
2023-05-05T09:47:09.388Z,19.27
2023-05-05T09:49:43.755Z,20.57
2023-05-05T09:52:16.071Z,20.57
2023-05-05T09:54:45.618Z,21.03
2023-05-05T09:57:27.891Z,19.30
2023-05-05T09:59:58.566Z,20.57
2023-05-05T10:02:36.484Z,19.83
2023-05-05T10:05:10.913Z,19.93
2023-05-05T10:07:40.295Z,21.33
2023-05-05T10:10:11.564Z,20.70
2023-05-05T10:12:40.841Z,20.67
2023-05-05T10:15:12.299Z,19.77
2023-05-05T10:18:05.346Z,21.97
2023-05-05T10:20:39.785Z,19.80
2023-05-05T10:23:11.680Z,20.80
2023-05-05T10:25:43.331Z,21.90
2023-05-05T10:28:16.631Z,21.87
2023-05-05T10:30:50.632Z,21.90
2023-05-05T10:33:31.910Z,20.03
2023-05-05T10:36:03.382Z,19.93
2023-05-05T10:38:33.372Z,20.27
2023-05-05T10:41:03.149Z,19.73
2023-05-05T10:43:32.489Z,20.57
2023-05-05T10:46:01.599Z,20.33
2023-05-05T10:48:36.998Z,21.30
2023-05-05T10:51:35.161Z,20.83
2023-05-05T10:54:13.100Z,21.17
2023-05-05T10:56:43.276Z,22.23
2023-05-05T10:59:43.660Z,22.17
2023-05-05T11:02:23.639Z,21.73
2023-05-05T11:05:22.562Z,23.13
2023-05-05T11:07:53.120Z,22.67
2023-05-05T11:10:23.284Z,21.50
2023-05-05T11:13:20.907Z,23.07
2023-05-05T11:15:50.828Z,22.67
2023-05-05T11:18:35.764Z,21.00
2023-05-05T11:21:19.155Z,21.50
2023-05-05T11:23:50.092Z,21.73
2023-05-05T11:26:40.020Z,20.03
2023-05-05T11:29:08.743Z,20.63
2023-05-05T11:31:37.543Z,20.83
2023-05-05T11:34:26.057Z,20.67
2023-05-05T11:37:01.251Z,21.60
2023-05-05T11:39:42.474Z,19.80
2023-05-05T11:42:32.096Z,18.67
2023-05-05T11:45:01.226Z,18.90
2023-05-05T11:47:33.230Z,18.70
2023-05-05T11:50:24.753Z,18.80
2023-05-05T11:52:54.746Z,18.63
2023-05-05T11:55:24.112Z,15.43
2023-05-05T11:57:53.091Z,17.10
2023-05-05T12:00:32.384Z,15.83
2023-05-05T12:03:01.080Z,15.83
2023-05-05T12:05:29.826Z,14.87
2023-05-05T12:08:00.210Z,14.43
2023-05-05T12:10:29.408Z,14.93
2023-05-05T12:12:58.248Z,14.63
2023-05-05T12:15:31.350Z,13.63
2023-05-05T12:18:02.672Z,12.87
2023-05-05T12:20:34.495Z,14.43
2023-05-05T12:23:05.353Z,12.80
2023-05-05T12:25:39.102Z,14.23
2023-05-05T12:28:08.871Z,14.33
2023-05-05T12:30:37.913Z,14.47
2023-05-05T12:33:08.123Z,13.33
2023-05-05T12:35:37.834Z,14.87
2023-05-05T12:38:07.959Z,14.03
2023-05-05T12:40:47.269Z,13.10
2023-05-05T12:43:26.649Z,12.63
2023-05-05T12:46:02.736Z,14.37
2023-05-05T12:48:31.670Z,13.90
2023-05-05T12:51:14.253Z,14.07
2023-05-05T12:53:44.621Z,15.50
2023-05-05T12:56:31.679Z,13.57
2023-05-05T12:59:00.958Z,12.97
2023-05-05T13:01:29.877Z,13.80
2023-05-05T13:04:09.756Z,13.20
2023-05-05T13:06:38.729Z,13.43
2023-05-05T13:09:10.393Z,12.50
2023-05-05T13:11:40.074Z,13.43
2023-05-05T13:14:09.324Z,14.23
2023-05-05T13:16:38.150Z,13.53
2023-05-05T13:19:06.835Z,12.80
2023-05-05T13:21:35.565Z,14.73
2023-05-05T13:24:23.008Z,13.20
2023-05-05T13:26:55.844Z,12.77
2023-05-05T13:29:28.359Z,11.57
2023-05-05T13:31:59.360Z,14.00
2023-05-05T13:34:28.310Z,13.07
2023-05-05T13:36:57.240Z,14.67
2023-05-05T13:39:25.910Z,13.33
2023-05-05T13:41:56.027Z,13.33
2023-05-05T13:44:24.662Z,12.73
2023-05-05T13:46:53.425Z,14.57
2023-05-05T13:49:22.213Z,12.37
2023-05-05T13:51:50.843Z,15.23
2023-05-05T13:54:19.562Z,12.47
2023-05-05T13:56:48.246Z,15.57
2023-05-05T13:59:18.279Z,12.93
2023-05-05T14:01:46.953Z,13.70
2023-05-05T14:04:15.555Z,13.60
2023-05-05T14:06:44.364Z,14.77
2023-05-05T14:09:13.236Z,12.07
2023-05-05T14:11:42.203Z,13.20
2023-05-05T14:14:10.888Z,13.53
2023-05-05T14:16:40.973Z,14.40
2023-05-05T14:19:09.729Z,14.03
2023-05-05T14:21:38.389Z,13.27
2023-05-05T14:24:07.684Z,13.03
2023-05-05T14:26:37.879Z,13.60
2023-05-05T14:29:06.588Z,13.80
2023-05-05T14:31:36.287Z,12.80
2023-05-05T14:34:06.730Z,13.43
2023-05-05T14:36:35.331Z,14.27
2023-05-05T14:39:04.041Z,12.97
2023-05-05T14:41:32.687Z,14.20
2023-05-05T14:44:01.369Z,14.87
2023-05-05T14:46:30.077Z,13.60
2023-05-05T14:48:58.954Z,14.93
2023-05-05T14:51:28.989Z,13.30
2023-05-05T14:53:57.555Z,14.53
2023-05-05T14:56:26.998Z,12.20
2023-05-05T14:58:55.700Z,14.80
2023-05-05T15:01:24.963Z,11.93
2023-05-05T15:03:54.015Z,13.07
2023-05-05T15:06:22.980Z,13.73
2023-05-05T15:08:53.174Z,13.37
2023-05-05T15:11:21.909Z,14.17
2023-05-05T15:13:50.612Z,13.93
2023-05-05T15:16:19.372Z,13.67
2023-05-05T15:18:48.138Z,14.43
2023-05-05T15:21:16.750Z,16.07
2023-05-05T15:23:45.601Z,15.97
2023-05-05T15:26:15.554Z,16.27
2023-05-05T15:28:44.355Z,15.80
2023-05-05T15:31:13.049Z,15.20
2023-05-05T15:33:42.465Z,15.93
2023-05-05T15:36:11.774Z,17.60
2023-05-05T15:38:43.381Z,16.27
2023-05-05T15:41:12.135Z,16.93
2023-05-05T15:43:42.141Z,15.57
2023-05-05T15:46:10.859Z,18.20
2023-05-05T15:48:39.480Z,16.30
2023-05-05T15:51:08.174Z,17.57
2023-05-05T15:53:37.881Z,16.63
2023-05-05T15:56:06.849Z,17.30
2023-05-05T15:58:36.745Z,15.90
2023-05-05T16:01:06.869Z,18.53
2023-05-05T16:03:35.650Z,16.43
2023-05-05T16:06:04.555Z,17.53
2023-05-05T16:08:33.189Z,16.77
2023-05-05T16:11:01.870Z,16.43
2023-05-05T16:13:30.564Z,17.10
2023-05-05T16:15:59.197Z,18.70
2023-05-05T16:18:29.274Z,17.70
2023-05-05T16:20:57.898Z,18.50
2023-05-05T16:23:26.653Z,16.47
2023-05-05T16:25:55.319Z,18.00
2023-05-05T16:28:23.949Z,16.13
2023-05-05T16:30:55.499Z,16.80
2023-05-05T16:33:24.689Z,15.03
2023-05-05T16:35:54.929Z,15.77
2023-05-05T16:38:23.764Z,16.57
2023-05-05T16:40:52.487Z,18.33
2023-05-05T16:43:23.763Z,16.90
2023-05-05T16:45:53.022Z,18.77
2023-05-05T16:48:22.954Z,16.97
2023-05-05T16:50:51.728Z,17.97
2023-05-05T16:53:21.868Z,18.17
2023-05-05T16:55:51.960Z,17.57
2023-05-05T16:58:21.054Z,18.60
2023-05-05T17:00:49.890Z,18.17
2023-05-05T17:03:18.744Z,18.47
2023-05-05T17:05:50.877Z,17.83
2023-05-05T17:08:20.864Z,18.30
2023-05-05T17:10:49.527Z,18.17
2023-05-05T17:13:18.250Z,18.00
2023-05-05T17:15:48.047Z,18.23
2023-05-05T17:18:17.055Z,20.03
2023-05-05T17:20:45.937Z,18.13
2023-05-05T17:23:14.525Z,19.60
2023-05-05T17:25:44.661Z,18.67
2023-05-05T17:28:13.261Z,18.53
2023-05-05T17:30:41.898Z,17.80
2023-05-05T17:33:10.807Z,18.73
2023-05-05T17:35:39.775Z,18.23
2023-05-05T17:38:08.431Z,19.70
2023-05-05T17:40:37.239Z,18.13
2023-05-05T17:43:07.639Z,19.90
2023-05-05T17:45:38.053Z,18.77
2023-05-05T17:48:10.113Z,20.90
2023-05-05T17:50:38.789Z,17.60
2023-05-05T17:53:07.425Z,20.40
2023-05-05T17:55:41.860Z,17.03
2023-05-05T17:58:11.926Z,18.53
2023-05-05T18:00:43.453Z,18.00
2023-05-05T18:03:13.814Z,18.87
2023-05-05T18:05:42.464Z,17.73
2023-05-05T18:08:11.271Z,18.27
2023-05-05T18:10:39.978Z,18.87
2023-05-05T18:13:08.764Z,18.67
2023-05-05T18:15:39.845Z,20.43
2023-05-05T18:18:08.553Z,17.97
2023-05-05T18:20:37.279Z,18.20
2023-05-05T18:23:05.961Z,19.23
2023-05-05T18:25:34.703Z,17.97
2023-05-05T18:28:03.508Z,17.40
2023-05-05T18:30:34.139Z,16.97
2023-05-05T18:33:04.246Z,17.57
2023-05-05T18:35:33.112Z,15.77
2023-05-05T18:38:03.451Z,15.83
2023-05-05T18:40:35.332Z,16.20
2023-05-05T18:43:04.156Z,16.83
2023-05-05T18:45:32.982Z,15.83
2023-05-05T18:48:03.263Z,18.80
2023-05-05T18:50:36.790Z,15.93
2023-05-05T18:53:05.622Z,16.97
2023-05-05T18:55:34.400Z,14.53
2023-05-05T18:58:03.232Z,15.73
2023-05-05T19:00:34.868Z,15.80
2023-05-05T19:03:05.711Z,16.43
2023-05-05T19:05:34.399Z,14.00
2023-05-05T19:08:03.562Z,16.23
2023-05-05T19:10:32.547Z,15.10
2023-05-05T19:13:01.304Z,17.10
2023-05-05T19:15:30.253Z,14.97
2023-05-05T19:18:05.696Z,17.13
2023-05-05T19:20:37.072Z,15.40
2023-05-05T19:23:11.903Z,15.30
2023-05-05T19:25:42.227Z,15.27
2023-05-05T19:28:11.200Z,16.20
2023-05-05T19:30:42.842Z,16.70
2023-05-05T19:33:11.710Z,14.53
2023-05-05T19:35:42.027Z,15.17
2023-05-05T19:38:17.250Z,15.30
2023-05-05T19:40:46.257Z,15.43
2023-05-05T19:43:17.623Z,13.53
2023-05-05T19:45:48.478Z,13.30
2023-05-05T19:48:17.227Z,14.37
2023-05-05T19:50:53.143Z,13.93
2023-05-05T19:53:25.547Z,12.90
2023-05-05T19:55:54.443Z,12.53
2023-05-05T19:58:24.819Z,12.60
2023-05-05T20:00:53.573Z,14.77
2023-05-05T20:03:25.562Z,12.93
2023-05-05T20:05:55.538Z,12.93
2023-05-05T20:08:30.244Z,12.27
2023-05-05T20:10:59.207Z,14.10
2023-05-05T20:13:28.114Z,13.87
2023-05-05T20:15:56.729Z,14.43
2023-05-05T20:18:26.170Z,12.80
2023-05-05T20:20:56.339Z,13.70
2023-05-05T20:23:25.201Z,13.80
2023-05-05T20:25:54.050Z,13.77
2023-05-05T20:28:22.856Z,13.27
2023-05-05T20:30:51.554Z,13.37
2023-05-05T20:33:22.493Z,13.80
2023-05-05T20:35:51.423Z,14.87
2023-05-05T20:38:29.925Z,13.10
2023-05-05T20:40:58.980Z,15.20
2023-05-05T20:43:27.769Z,13.73
2023-05-05T20:45:56.600Z,16.67
2023-05-05T20:48:25.570Z,13.90
2023-05-05T20:50:55.093Z,15.07
2023-05-05T20:53:25.495Z,13.47
2023-05-05T20:55:54.248Z,13.97
2023-05-05T20:58:22.993Z,13.40
2023-05-05T21:00:54.799Z,14.73
2023-05-05T21:03:23.675Z,12.63
2023-05-05T21:05:57.049Z,12.17
2023-05-05T21:08:27.297Z,14.67
2023-05-05T21:10:58.825Z,14.47
2023-05-05T21:13:28.252Z,14.30
2023-05-05T21:16:00.417Z,13.63
2023-05-05T21:18:29.083Z,13.77
2023-05-05T21:21:01.371Z,16.60
2023-05-05T21:23:31.941Z,13.83
2023-05-05T21:26:00.778Z,14.00
2023-05-05T21:28:29.418Z,14.57
2023-05-05T21:31:19.887Z,14.07
2023-05-05T21:33:47.382Z,13.97
2023-05-05T21:36:17.675Z,12.70
2023-05-05T21:38:47.886Z,12.67
2023-05-05T21:41:18.373Z,11.97
2023-05-05T21:43:47.093Z,11.93
2023-05-05T21:46:17.299Z,12.23
2023-05-05T21:48:48.395Z,12.00
2023-05-05T21:51:17.426Z,13.17
2023-05-05T21:53:47.602Z,12.33
2023-05-05T21:56:16.379Z,13.53
2023-05-05T21:58:47.765Z,12.30
2023-05-05T22:01:16.649Z,13.50
2023-05-05T22:03:47.514Z,12.43
2023-05-05T22:06:18.492Z,11.80
2023-05-05T22:08:51.957Z,12.90
2023-05-05T22:11:20.847Z,13.27
2023-05-05T22:13:49.628Z,13.00
2023-05-05T22:16:18.599Z,14.03
2023-05-05T22:18:47.376Z,11.50
2023-05-05T22:21:19.133Z,12.67
2023-05-05T22:23:53.225Z,11.70
2023-05-05T22:26:22.267Z,13.53
2023-05-05T22:28:51.145Z,12.80
2023-05-05T22:31:19.947Z,12.33
2023-05-05T22:33:48.931Z,12.30
2023-05-05T22:36:17.718Z,13.93
2023-05-05T22:38:46.611Z,13.67
2023-05-05T22:41:19.744Z,13.60
2023-05-05T22:43:49.285Z,12.03
2023-05-05T22:46:18.225Z,13.57
2023-05-05T22:48:47.327Z,11.83
2023-05-05T22:51:16.539Z,13.23
2023-05-05T22:53:45.328Z,12.60
2023-05-05T22:56:15.666Z,13.57
2023-05-05T22:58:46.574Z,12.33
2023-05-05T23:01:15.340Z,11.87
2023-05-05T23:03:44.068Z,12.23
2023-05-05T23:06:13.006Z,15.00
2023-05-05T23:08:42.004Z,13.73
2023-05-05T23:11:10.696Z,14.50
2023-05-05T23:13:39.438Z,14.07
2023-05-05T23:16:10.058Z,15.00
2023-05-05T23:18:38.831Z,15.77
2023-05-05T23:21:07.785Z,15.57
2023-05-05T23:23:36.391Z,14.77
2023-05-05T23:26:05.105Z,17.30
2023-05-05T23:28:33.865Z,13.93
2023-05-05T23:31:02.545Z,15.40
2023-05-05T23:33:35.596Z,13.53
2023-05-05T23:36:06.086Z,15.20
2023-05-05T23:38:34.875Z,13.57
2023-05-05T23:41:03.647Z,16.60
2023-05-05T23:43:32.594Z,15.47
2023-05-05T23:46:01.350Z,14.60
2023-05-05T23:48:37.136Z,14.80
2023-05-05T23:51:07.380Z,15.50
2023-05-05T23:53:36.103Z,12.20
2023-05-05T23:56:04.983Z,13.80
2023-05-05T23:58:33.751Z,13.97
